Time;durP1;ratioP1;P1;durP2;ratioP2;P2;SDS_P1;SDS_P2;PMS_P1;PMS_P2;Temp;Humidity;BMP_temperature;BMP_pressure;BME280_temperature;BME280_humidity;BME280_pressure;Samples;Min_cycle;Max_cycle;Signal;HPM_P1;HPM_P2
2021/10/25 00:01:19;;;;;;;16.63;12.48;;;6.30;99.90;;;;;;5059627;28;20212;-68
2021/10/25 00:03:45;;;;;;;13.85;11.70;;;6.30;99.90;;;;;;5062015;28;20060;-69
2021/10/25 00:06:11;;;;;;;14.95;11.40;;;6.20;99.90;;;;;;5094053;27;20039;-68
2021/10/25 00:08:37;;;;;;;16.63;11.90;;;6.20;99.90;;;;;;5058666;28;20048;-68
2021/10/25 00:11:02;;;;;;;16.85;11.80;;;6.20;99.90;;;;;;5061262;28;20037;-68
2021/10/25 00:13:28;;;;;;;15.05;11.98;;;6.20;99.90;;;;;;5060284;28;20041;-68
2021/10/25 00:15:54;;;;;;;15.80;11.50;;;6.30;99.90;;;;;;5060492;28;20033;-68
2021/10/25 00:18:19;;;;;;;16.83;12.15;;;6.20;99.90;;;;;;5056123;28;20033;-69
2021/10/25 00:20:45;;;;;;;15.18;13.18;;;6.20;99.90;;;;;;5058532;28;20163;-69
2021/10/25 00:23:10;;;;;;;17.05;12.23;;;6.10;99.90;;;;;;5090722;27;20059;-69
2021/10/25 00:25:36;;;;;;;18.48;12.00;;;6.10;99.90;;;;;;5060959;28;20494;-68
2021/10/25 00:28:02;;;;;;;18.27;12.75;;;6.20;99.90;;;;;;5092047;27;20072;-68
2021/10/25 00:30:28;;;;;;;17.00;12.35;;;6.10;99.90;;;;;;5059105;28;20482;-68
2021/10/25 00:32:53;;;;;;;16.50;11.68;;;6.10;99.90;;;;;;5058357;28;20028;-68
2021/10/25 00:35:19;;;;;;;16.10;12.35;;;6.10;99.90;;;;;;5060062;28;20613;-69
2021/10/25 00:37:45;;;;;;;15.50;11.93;;;6.10;99.90;;;;;;5059399;28;20489;-68
2021/10/25 00:40:11;;;;;;;17.42;12.10;;;6.10;99.90;;;;;;5059692;28;20127;-68
2021/10/25 00:42:36;;;;;;;19.42;12.25;;;6.10;99.90;;;;;;5058671;28;20040;-68
2021/10/25 00:45:02;;;;;;;15.35;11.43;;;6.10;99.90;;;;;;5063428;28;20137;-68
2021/10/25 00:47:28;;;;;;;19.52;12.27;;;6.10;99.90;;;;;;5089362;27;20045;-68
2021/10/25 00:49:54;;;;;;;20.27;12.57;;;6.10;99.90;;;;;;5059259;28;20036;-68
2021/10/25 00:52:19;;;;;;;16.75;12.50;;;6.10;99.90;;;;;;5062170;28;20041;-69
2021/10/25 00:54:45;;;;;;;19.55;13.05;;;6.10;99.90;;;;;;5059145;28;20043;-68
2021/10/25 00:57:12;;;;;;;17.55;12.45;;;6.10;99.90;;;;;;5056413;28;20044;-68
2021/10/25 00:59:37;;;;;;;19.00;13.23;;;6.10;99.90;;;;;;5059693;28;20111;-68
2021/10/25 01:02:04;;;;;;;18.13;12.55;;;6.10;99.90;;;;;;5056975;28;20033;-68
2021/10/25 01:04:31;;;;;;;17.33;13.23;;;6.10;99.90;;;;;;5061973;28;20036;-69
2021/10/25 01:06:58;;;;;;;16.45;11.80;;;6.20;99.90;;;;;;5089409;27;20053;-69
2021/10/25 01:09:24;;;;;;;19.45;13.35;;;6.10;99.90;;;;;;5059451;28;20051;-69
2021/10/25 01:11:50;;;;;;;15.60;11.65;;;6.10;99.90;;;;;;5063510;28;20037;-69
2021/10/25 01:14:17;;;;;;;14.25;12.73;;;6.10;99.90;;;;;;5060370;28;20047;-69
2021/10/25 01:16:42;;;;;;;14.40;12.60;;;6.10;99.90;;;;;;5057159;28;20040;-69
2021/10/25 01:19:08;;;;;;;16.42;13.23;;;6.10;99.90;;;;;;5090899;27;20922;-69
2021/10/25 01:21:33;;;;;;;16.45;12.35;;;6.10;99.90;;;;;;5063124;28;20036;-69
2021/10/25 01:23:59;;;;;;;21.33;13.35;;;6.00;99.90;;;;;;5059968;28;20029;-69
2021/10/25 01:26:25;;;;;;;17.95;13.52;;;6.10;99.90;;;;;;5061067;28;20115;-69
2021/10/25 01:28:52;;;;;;;18.10;13.27;;;6.00;99.90;;;;;;5060677;28;20135;-69
2021/10/25 01:31:19;;;;;;;17.30;12.88;;;6.00;99.90;;;;;;5059821;28;20119;-69
2021/10/25 01:33:46;;;;;;;17.17;13.48;;;6.00;99.90;;;;;;5060193;28;20478;-69
2021/10/25 01:36:12;;;;;;;15.88;12.45;;;6.00;99.90;;;;;;5058680;28;20037;-69
2021/10/25 01:38:38;;;;;;;19.83;13.32;;;6.00;99.90;;;;;;5088673;27;20049;-69
2021/10/25 01:41:04;;;;;;;18.55;12.70;;;6.00;99.90;;;;;;5057720;28;20047;-69
2021/10/25 01:43:30;;;;;;;16.40;12.60;;;6.00;99.90;;;;;;5059856;28;20048;-69
2021/10/25 01:45:56;;;;;;;19.40;14.18;;;6.00;99.90;;;;;;5061748;28;20051;-69
2021/10/25 01:48:22;;;;;;;16.92;12.73;;;5.90;99.90;;;;;;5062811;28;20041;-69
2021/10/25 01:50:48;;;;;;;16.02;13.05;;;6.00;99.90;;;;;;5064056;28;20045;-69
2021/10/25 01:53:14;;;;;;;16.02;13.07;;;6.00;99.90;;;;;;5060857;28;20483;-69
2021/10/25 01:55:39;;;;;;;18.05;13.82;;;5.90;99.90;;;;;;5061163;28;20028;-69
2021/10/25 01:58:06;;;;;;;17.92;13.73;;;5.90;99.90;;;;;;5099223;27;20063;-69
2021/10/25 02:00:32;;;;;;;16.85;13.00;;;5.90;99.90;;;;;;5066085;28;20047;-69
2021/10/25 02:02:59;;;;;;;14.65;11.88;;;5.90;99.90;;;;;;5061089;28;20048;-69
2021/10/25 02:05:25;;;;;;;15.57;12.88;;;5.90;99.90;;;;;;5063769;28;20033;-69
2021/10/25 02:07:50;;;;;;;14.93;13.13;;;5.90;99.90;;;;;;5062328;28;20410;-68
2021/10/25 02:10:16;;;;;;;16.48;14.23;;;5.90;99.90;;;;;;5059783;28;20140;-69
2021/10/25 02:12:42;;;;;;;18.85;13.57;;;5.90;99.90;;;;;;5062474;28;20043;-69
2021/10/25 02:15:09;;;;;;;14.57;12.93;;;5.90;99.90;;;;;;5059108;28;20051;-69
2021/10/25 02:17:34;;;;;;;17.60;13.23;;;5.90;99.90;;;;;;5061953;28;20059;-69
2021/10/25 02:20:01;;;;;;;16.60;13.82;;;5.80;99.90;;;;;;5062175;28;20048;-69
2021/10/25 02:22:26;;;;;;;17.35;13.70;;;5.80;99.90;;;;;;5062446;28;20468;-69
2021/10/25 02:24:53;;;;;;;16.10;13.45;;;5.80;99.90;;;;;;5066533;28;20144;-69
2021/10/25 02:27:19;;;;;;;17.58;13.57;;;5.80;99.90;;;;;;5064635;28;20395;-69
2021/10/25 02:29:45;;;;;;;18.77;14.02;;;5.80;99.90;;;;;;5092698;27;20047;-69
2021/10/25 02:32:15;;;;;;;16.75;14.10;;;5.80;99.90;;;;;;5065274;28;20037;-69
2021/10/25 02:34:42;;;;;;;15.52;13.32;;;5.80;99.90;;;;;;5079155;28;21083;-69
2021/10/25 02:37:08;;;;;;;18.15;13.75;;;5.80;99.90;;;;;;5064775;28;20093;-69
2021/10/25 02:39:33;;;;;;;21.15;14.27;;;5.80;99.90;;;;;;5060894;28;20126;-69
2021/10/25 02:41:59;;;;;;;16.25;13.40;;;5.80;99.90;;;;;;5063108;28;20044;-69
2021/10/25 02:44:26;;;;;;;22.95;14.15;;;5.80;99.90;;;;;;5062477;28;20037;-69
2021/10/25 02:46:53;;;;;;;20.42;14.05;;;5.80;99.90;;;;;;5064037;28;20131;-69
2021/10/25 02:49:19;;;;;;;18.10;14.45;;;5.80;99.90;;;;;;5063628;28;20040;-69
2021/10/25 02:51:45;;;;;;;17.38;14.48;;;5.80;99.90;;;;;;5064292;28;20063;-69
2021/10/25 02:54:10;;;;;;;17.38;15.32;;;5.80;99.90;;;;;;5055482;28;20044;-69
2021/10/25 02:56:36;;;;;;;18.75;14.27;;;5.90;99.90;;;;;;5063222;28;20070;-69
2021/10/25 02:59:02;;;;;;;16.73;14.00;;;5.80;99.90;;;;;;5062479;28;20040;-69
2021/10/25 03:01:28;;;;;;;16.95;13.90;;;5.90;99.90;;;;;;5062205;28;20136;-69
2021/10/25 03:03:53;;;;;;;23.92;14.77;;;5.90;99.90;;;;;;5059209;28;20116;-69
2021/10/25 03:06:19;;;;;;;18.95;15.30;;;5.90;99.90;;;;;;5063544;28;20091;-69
2021/10/25 03:08:44;;;;;;;16.50;14.10;;;5.90;99.90;;;;;;5061422;28;20411;-69
2021/10/25 03:11:10;;;;;;;19.80;14.07;;;5.90;99.90;;;;;;5061295;28;20112;-69
2021/10/25 03:13:35;;;;;;;21.80;14.77;;;5.90;99.90;;;;;;5059526;28;20134;-69
2021/10/25 03:16:01;;;;;;;18.13;14.38;;;5.90;99.90;;;;;;5060178;28;20032;-69
2021/10/25 03:18:27;;;;;;;19.23;15.32;;;5.90;99.90;;;;;;5060090;28;20036;-69
2021/10/25 03:20:54;;;;;;;16.92;14.07;;;5.90;99.90;;;;;;5058677;28;20048;-69
2021/10/25 03:23:19;;;;;;;22.83;15.25;;;5.90;99.90;;;;;;5061370;28;20040;-69
2021/10/25 03:25:45;;;;;;;21.95;15.45;;;5.90;99.90;;;;;;5059584;28;20932;-69
2021/10/25 03:28:11;;;;;;;18.95;15.30;;;5.90;99.90;;;;;;5062011;28;20084;-69
2021/10/25 03:30:37;;;;;;;19.52;15.00;;;5.90;99.90;;;;;;5060567;28;20119;-69
2021/10/25 03:33:03;;;;;;;24.23;14.25;;;5.90;99.90;;;;;;5062093;28;20037;-69
2021/10/25 03:35:29;;;;;;;19.15;14.48;;;5.90;99.90;;;;;;5059163;28;20452;-69
2021/10/25 03:37:56;;;;;;;23.55;16.38;;;5.90;99.90;;;;;;5093029;28;20036;-69
2021/10/25 03:40:22;;;;;;;17.38;14.40;;;6.00;99.90;;;;;;5061341;28;20036;-69
2021/10/25 03:42:51;;;;;;;19.90;15.10;;;6.00;99.90;;;;;;5062347;28;21615;-69
2021/10/25 03:45:33;;;;;;;18.23;14.57;;;6.00;99.90;;;;;;5057695;28;20048;-69
2021/10/25 03:48:21;;;;;;;18.83;15.05;;;6.00;99.90;;;;;;5058378;28;20056;-69
2021/10/25 03:50:49;;;;;;;20.45;15.00;;;6.00;99.90;;;;;;5059917;28;20067;-69
2021/10/25 04:04:16;;;;;;;15.98;14.27;;;6.10;99.90;;;;;;5040299;28;20530;-69
2021/10/25 04:28:24;;;;;;;19.48;14.80;;;6.40;99.90;;;;;;5092621;27;20125;-69
2021/10/25 04:30:57;;;;;;;15.93;12.82;;;6.40;99.90;;;;;;5063398;28;21683;-69
2021/10/25 04:33:23;;;;;;;16.63;13.70;;;6.40;99.90;;;;;;5066095;28;20120;-69
2021/10/25 04:35:48;;;;;;;23.63;15.73;;;6.50;99.90;;;;;;5066775;28;20123;-69
2021/10/25 04:38:14;;;;;;;21.73;15.10;;;6.50;99.90;;;;;;5065985;28;20060;-69
2021/10/25 04:40:40;;;;;;;16.13;13.40;;;6.50;99.90;;;;;;5095111;27;20044;-69
2021/10/25 04:43:05;;;;;;;17.25;13.65;;;6.60;99.90;;;;;;5067694;28;20109;-69
2021/10/25 04:45:31;;;;;;;15.45;13.18;;;6.60;99.90;;;;;;5094732;27;20045;-69
2021/10/25 04:47:57;;;;;;;17.27;13.70;;;6.60;99.90;;;;;;5065879;28;20069;-69
2021/10/25 04:50:23;;;;;;;20.98;13.80;;;6.70;99.90;;;;;;5068591;28;20037;-69
2021/10/25 04:52:48;;;;;;;17.02;12.55;;;6.70;99.90;;;;;;5065603;28;20071;-69
2021/10/25 04:55:14;;;;;;;16.48;13.30;;;6.70;99.90;;;;;;5067697;28;20633;-69
2021/10/25 04:57:40;;;;;;;15.57;12.73;;;6.70;99.90;;;;;;5068750;28;20033;-69
2021/10/25 05:00:06;;;;;;;17.27;13.68;;;6.80;99.90;;;;;;5064747;28;20536;-69
2021/10/25 05:02:32;;;;;;;25.00;13.02;;;6.80;99.90;;;;;;5063086;28;20363;-69
2021/10/25 05:04:58;;;;;;;21.02;13.43;;;6.90;99.90;;;;;;5062459;28;20051;-69
2021/10/25 05:07:24;;;;;;;19.50;12.57;;;6.90;99.90;;;;;;5076949;28;20390;-69
2021/10/25 05:09:52;;;;;;;19.52;13.40;;;7.00;99.90;;;;;;5061523;28;20530;-69
2021/10/25 05:12:18;;;;;;;22.23;13.75;;;7.00;99.90;;;;;;5066370;28;20087;-69
2021/10/25 05:14:44;;;;;;;20.98;13.75;;;7.00;99.90;;;;;;5066883;28;20036;-69
2021/10/25 05:17:10;;;;;;;19.63;12.98;;;7.10;99.90;;;;;;5056002;28;20033;-69
2021/10/25 05:19:36;;;;;;;14.00;12.40;;;7.10;99.90;;;;;;5057701;28;20043;-69
2021/10/25 05:22:02;;;;;;;16.70;12.88;;;7.10;99.90;;;;;;5062995;28;20048;-69
2021/10/25 05:24:27;;;;;;;16.52;12.27;;;7.20;99.90;;;;;;5062873;28;20048;-69
2021/10/25 05:26:53;;;;;;;18.60;12.88;;;7.20;99.90;;;;;;5058121;28;20079;-69
2021/10/25 05:29:18;;;;;;;14.88;12.25;;;7.20;99.90;;;;;;5059092;28;20033;-69
2021/10/25 05:31:45;;;;;;;22.17;13.30;;;7.30;99.90;;;;;;5071666;28;20049;-69
2021/10/25 05:34:11;;;;;;;15.40;12.38;;;7.30;99.90;;;;;;5062959;28;20509;-69
2021/10/25 05:36:37;;;;;;;16.77;12.02;;;7.30;99.90;;;;;;5059339;28;20501;-68
2021/10/25 05:39:08;;;;;;;16.92;12.13;;;7.30;99.90;;;;;;5064593;28;20087;-69
2021/10/25 05:41:34;;;;;;;17.60;11.93;;;7.40;99.90;;;;;;5090639;27;20051;-68
2021/10/25 05:44:00;;;;;;;16.45;12.75;;;7.40;99.90;;;;;;5058065;28;20045;-68
2021/10/25 05:46:26;;;;;;;17.27;12.05;;;7.40;99.90;;;;;;5057779;28;20048;-68
2021/10/25 05:48:54;;;;;;;14.52;12.10;;;7.40;99.90;;;;;;5060566;28;20036;-68
2021/10/25 05:51:19;;;;;;;16.65;12.90;;;7.50;99.90;;;;;;5059149;28;20036;-68
2021/10/25 05:53:46;;;;;;;15.30;12.80;;;7.50;99.90;;;;;;5057945;28;20131;-68
2021/10/25 05:56:11;;;;;;;21.33;14.27;;;7.50;99.90;;;;;;5062546;28;20094;-68
2021/10/25 05:58:37;;;;;;;18.80;14.00;;;7.50;99.90;;;;;;5066247;28;20048;-69
2021/10/25 06:01:06;;;;;;;16.23;12.48;;;7.60;99.90;;;;;;5065179;28;20046;-68
2021/10/25 06:03:34;;;;;;;16.42;12.32;;;7.60;99.90;;;;;;5060567;28;20410;-69
2021/10/25 06:06:00;;;;;;;15.38;12.40;;;7.60;99.90;;;;;;5058643;28;20566;-69
2021/10/25 06:08:25;;;;;;;16.30;11.77;;;7.60;99.90;;;;;;5056147;28;20170;-69
2021/10/25 06:10:51;;;;;;;16.70;11.88;;;7.70;99.90;;;;;;5059166;28;20117;-69
2021/10/25 06:13:26;;;;;;;16.33;12.48;;;7.70;99.90;;;;;;5055787;28;20071;-69
2021/10/25 06:16:02;;;;;;;21.33;12.73;;;7.70;99.90;;;;;;5056644;28;20041;-68
2021/10/25 06:18:28;;;;;;;16.75;12.77;;;7.70;99.90;;;;;;5055305;28;20059;-68
2021/10/25 06:20:54;;;;;;;16.90;12.82;;;7.80;99.90;;;;;;5058325;28;20036;-68
2021/10/25 06:23:20;;;;;;;18.30;12.40;;;7.80;99.90;;;;;;5055392;28;20036;-68
2021/10/25 06:25:51;;;;;;;16.40;12.95;;;7.80;99.90;;;;;;5054686;28;20036;-67
2021/10/25 06:28:17;;;;;;;19.83;13.95;;;7.80;99.90;;;;;;5056887;28;20044;-67
2021/10/25 06:30:43;;;;;;;20.23;12.07;;;7.80;99.90;;;;;;5058874;28;20398;-67
2021/10/25 06:33:14;;;;;;;20.17;11.50;;;7.80;99.90;;;;;;5055130;28;20025;-68
2021/10/25 06:35:40;;;;;;;14.38;11.57;;;7.90;99.90;;;;;;5088523;28;20040;-68
2021/10/25 06:38:11;;;;;;;16.10;10.93;;;7.90;99.90;;;;;;5054222;28;20051;-68
2021/10/25 06:40:38;;;;;;;17.13;12.57;;;7.90;99.90;;;;;;5053291;28;20506;-69
2021/10/25 06:43:04;;;;;;;16.20;12.38;;;8.00;99.90;;;;;;5055114;28;21658;-69
2021/10/25 06:45:30;;;;;;;14.27;11.90;;;8.00;99.90;;;;;;5086192;27;20131;-68
2021/10/25 06:47:56;;;;;;;18.48;11.90;;;8.10;99.90;;;;;;5055519;28;20053;-68
2021/10/25 06:50:26;;;;;;;14.35;11.77;;;8.10;99.90;;;;;;5057809;28;20040;-69
2021/10/25 06:53:02;;;;;;;17.63;11.15;;;8.20;99.90;;;;;;5052565;28;20451;-68
2021/10/25 06:55:28;;;;;;;17.80;11.30;;;8.20;99.90;;;;;;5052452;28;20179;-68
2021/10/25 06:57:53;;;;;;;15.30;10.52;;;8.30;99.90;;;;;;5054336;28;20124;-69
2021/10/25 07:00:19;;;;;;;14.43;11.38;;;8.30;99.90;;;;;;5087251;28;20136;-69
2021/10/25 07:02:44;;;;;;;12.30;11.00;;;8.40;99.90;;;;;;5054601;28;20037;-69
2021/10/25 07:05:10;;;;;;;15.93;10.07;;;8.40;99.90;;;;;;5055026;28;20054;-69
2021/10/25 07:07:37;;;;;;;13.73;9.77;;;8.40;99.90;;;;;;5085756;27;20048;-67
2021/10/25 07:10:05;;;;;;;11.55;10.35;;;8.50;99.90;;;;;;5054701;28;20045;-67
2021/10/25 07:12:31;;;;;;;12.68;10.57;;;8.60;99.90;;;;;;5055441;28;20376;-67
2021/10/25 07:14:58;;;;;;;14.73;10.27;;;8.60;99.90;;;;;;5086098;28;20051;-67
2021/10/25 07:17:33;;;;;;;16.52;10.30;;;8.60;99.90;;;;;;5056825;28;20033;-67
2021/10/25 08:01:19;;;;;;;14.60;10.48;;;9.10;99.90;;;;;;5089822;27;20084;-67
2021/10/25 08:11:36;;;;;;;16.95;11.93;;;9.30;99.90;;;;;;5057045;28;20036;-67
2021/10/25 08:14:05;;;;;;;18.45;11.20;;;9.40;99.90;;;;;;5056537;28;20044;-67
2021/10/25 08:16:52;;;;;;;16.08;11.95;;;9.40;99.90;;;;;;5088735;27;20123;-67
2021/10/25 08:19:24;;;;;;;16.67;12.20;;;9.50;99.90;;;;;;5058155;28;20051;-67
2021/10/25 08:21:58;;;;;;;14.98;11.98;;;9.50;99.90;;;;;;5059035;28;20033;-67
2021/10/25 08:24:26;;;;;;;14.35;10.95;;;9.50;99.90;;;;;;5057650;28;20036;-67
2021/10/25 08:26:52;;;;;;;16.83;10.93;;;9.50;99.90;;;;;;5073305;28;20090;-67
2021/10/25 08:29:20;;;;;;;16.63;11.90;;;9.60;99.90;;;;;;5061360;28;20085;-67
2021/10/25 08:31:54;;;;;;;16.75;12.45;;;9.70;99.90;;;;;;5057768;28;20975;-67
2021/10/25 08:34:30;;;;;;;16.33;11.60;;;9.70;99.90;;;;;;5057095;28;20040;-67
2021/10/25 08:42:13;;;;;;;17.27;11.65;;;9.70;99.90;;;;;;5058080;28;20074;-67
2021/10/25 08:44:40;;;;;;;16.75;12.05;;;9.70;99.90;;;;;;5060660;28;20037;-67
2021/10/25 08:47:07;;;;;;;17.23;12.63;;;9.70;99.90;;;;;;5055463;28;20539;-67
2021/10/25 08:49:33;;;;;;;13.27;10.48;;;9.80;99.90;;;;;;5057584;28;20056;-67
2021/10/25 08:52:00;;;;;;;17.45;12.90;;;9.80;99.90;;;;;;5055716;28;20044;-67
2021/10/25 08:54:26;;;;;;;12.55;11.05;;;9.80;99.90;;;;;;5055749;28;20414;-67
2021/10/25 08:56:52;;;;;;;12.40;10.15;;;9.80;99.90;;;;;;5057075;28;20406;-67
2021/10/25 08:59:20;;;;;;;16.55;12.30;;;9.90;99.90;;;;;;5056055;28;20037;-67
2021/10/25 09:01:46;;;;;;;17.40;11.35;;;10.00;99.90;;;;;;5057883;28;20097;-67
2021/10/25 09:04:14;;;;;;;16.02;11.25;;;10.00;99.90;;;;;;5074427;28;20490;-67
2021/10/25 09:06:51;;;;;;;14.68;11.82;;;10.00;99.90;;;;;;5087517;27;20180;-67
2021/10/25 09:09:17;;;;;;;14.52;11.20;;;10.00;99.90;;;;;;5057946;28;20555;-67
2021/10/25 09:12:04;;;;;;;14.20;11.48;;;10.10;99.90;;;;;;5058491;28;20371;-67
2021/10/25 09:14:31;;;;;;;18.65;11.90;;;10.10;99.90;;;;;;5089190;28;20041;-67
2021/10/25 09:17:00;;;;;;;14.13;11.52;;;10.10;99.90;;;;;;5060253;28;20048;-67
2021/10/25 09:19:30;;;;;;;17.42;11.95;;;10.10;99.90;;;;;;5055778;28;20056;-67
2021/10/25 09:22:03;;;;;;;15.82;11.05;;;10.10;99.90;;;;;;5054597;28;20044;-67
2021/10/25 09:24:29;;;;;;;15.40;11.32;;;10.20;99.90;;;;;;5056125;28;20048;-67
2021/10/25 09:26:59;;;;;;;14.75;11.93;;;10.10;99.90;;;;;;5056762;28;20041;-67
2021/10/25 09:29:27;;;;;;;22.75;12.02;;;10.20;99.90;;;;;;5055980;28;20049;-67
2021/10/25 09:31:57;;;;;;;14.38;11.23;;;10.20;99.90;;;;;;5054373;28;20075;-67
2021/10/25 09:35:16;;;;;;;15.13;11.77;;;10.20;99.90;;;;;;5061122;28;20493;-67
2021/10/25 09:37:30;;;;;;;12.73;10.20;;;10.20;99.90;;;;;;5054868;28;20045;-67
2021/10/25 09:40:05;;;;;;;15.48;10.82;;;10.20;99.90;;;;;;5084522;27;20047;-67
2021/10/25 09:49:02;;;;;;;15.90;10.45;;;10.30;99.90;;;;;;5062795;28;20056;-67
2021/10/25 09:50:51;;;;;;;17.30;9.95;;;10.30;99.90;;;;;;5056293;28;20048;-67
2021/10/25 09:53:38;;;;;;;14.50;11.90;;;10.40;99.90;;;;;;5058094;28;20557;-67
2021/10/25 09:56:09;;;;;;;14.20;10.40;;;10.40;99.90;;;;;;5055376;28;20435;-67
2021/10/25 09:58:53;;;;;;;16.25;10.63;;;10.30;99.90;;;;;;5088071;27;20127;-67
2021/10/25 10:01:25;;;;;;;14.07;10.70;;;10.40;99.90;;;;;;5086875;27;20040;-67
2021/10/25 10:03:52;;;;;;;16.70;12.32;;;10.40;99.90;;;;;;5087026;27;20108;-67
2021/10/25 10:06:24;;;;;;;16.95;11.88;;;10.50;99.90;;;;;;5085699;27;20503;-67
2021/10/25 10:08:50;;;;;;;13.25;11.05;;;10.50;99.90;;;;;;5056270;28;20040;-67
2021/10/25 10:11:18;;;;;;;13.63;10.75;;;10.50;99.90;;;;;;5053671;28;20089;-68
2021/10/25 10:13:45;;;;;;;17.63;12.18;;;10.60;99.90;;;;;;5053926;28;20047;-68
2021/10/25 10:16:10;;;;;;;12.88;11.57;;;10.60;99.90;;;;;;5054225;28;20165;-68
2021/10/25 10:18:43;;;;;;;13.00;11.68;;;10.60;99.90;;;;;;5055055;28;20590;-67
2021/10/25 10:21:12;;;;;;;13.43;11.80;;;10.70;99.90;;;;;;5089208;28;20078;-67
2021/10/25 10:23:40;;;;;;;13.82;12.35;;;10.80;99.90;;;;;;5056308;28;20382;-67
2021/10/25 10:26:13;;;;;;;14.93;11.02;;;10.70;99.90;;;;;;5055511;28;20056;-67
2021/10/25 10:28:50;;;;;;;14.50;11.23;;;10.70;99.90;;;;;;5052232;28;20041;-67
2021/10/25 10:31:24;;;;;;;12.77;11.00;;;10.80;99.90;;;;;;5053576;28;20036;-67
2021/10/25 10:33:54;;;;;;;14.95;10.77;;;10.80;99.90;;;;;;5055939;28;20041;-67
2021/10/25 10:36:31;;;;;;;15.43;10.68;;;10.90;99.90;;;;;;5054292;28;20453;-67
2021/10/25 10:39:11;;;;;;;14.85;11.55;;;10.90;99.90;;;;;;5056665;28;20059;-67
2021/10/25 10:41:43;;;;;;;10.27;9.25;;;10.90;99.90;;;;;;5057411;28;20041;-67
2021/10/25 10:44:15;;;;;;;13.43;10.60;;;10.90;99.90;;;;;;5058078;28;21564;-67
2021/10/25 10:46:49;;;;;;;10.27;9.27;;;10.80;99.90;;;;;;5055050;28;20490;-67
2021/10/25 10:49:41;;;;;;;11.43;9.88;;;10.80;99.90;;;;;;5055332;28;20058;-67
2021/10/25 10:52:32;;;;;;;10.55;9.38;;;10.80;99.90;;;;;;5087134;27;20795;-67
2021/10/25 10:55:13;;;;;;;12.57;9.05;;;10.80;99.90;;;;;;5084726;27;20491;-67
2021/10/25 11:00:23;;;;;;;11.23;10.07;;;10.80;99.90;;;;;;5055648;28;20028;-67
2021/10/25 11:02:51;;;;;;;11.50;10.38;;;10.80;99.90;;;;;;5056337;28;20029;-67
2021/10/25 11:05:36;;;;;;;13.70;11.18;;;10.80;99.90;;;;;;5068327;28;20134;-67
2021/10/25 11:08:07;;;;;;;11.02;9.35;;;10.80;99.90;;;;;;5087026;28;20056;-67
2021/10/25 11:10:32;;;;;;;15.35;10.93;;;10.80;99.90;;;;;;5085261;28;20049;-67
2021/10/25 11:13:26;;;;;;;11.57;10.40;;;10.90;99.90;;;;;;5057701;28;20045;-67
2021/10/25 11:15:53;;;;;;;13.95;11.32;;;10.90;99.90;;;;;;5051821;28;20588;-67
2021/10/25 11:18:27;;;;;;;15.02;10.88;;;10.90;99.90;;;;;;5085580;28;20055;-67
2021/10/25 11:21:19;;;;;;;14.20;12.40;;;10.90;99.90;;;;;;5057058;28;20094;-67
2021/10/25 11:23:55;;;;;;;19.58;12.80;;;10.90;99.90;;;;;;5056841;28;20456;-67
2021/10/25 11:26:29;;;;;;;16.08;12.60;;;10.90;99.90;;;;;;5060140;28;20082;-67
2021/10/25 11:28:56;;;;;;;20.52;14.18;;;10.90;99.90;;;;;;5059167;28;20059;-67
2021/10/25 11:31:22;;;;;;;17.15;14.20;;;11.00;99.90;;;;;;5090714;27;20040;-67
2021/10/25 11:33:49;;;;;;;17.30;13.77;;;11.00;99.90;;;;;;5089323;27;20068;-67
2021/10/25 11:36:16;;;;;;;17.40;13.43;;;11.00;99.90;;;;;;5056610;28;20044;-67
2021/10/25 11:38:43;;;;;;;14.02;12.00;;;11.00;99.90;;;;;;5091196;27;20048;-67
2021/10/25 11:41:10;;;;;;;18.80;14.10;;;11.10;99.90;;;;;;5060081;28;20033;-67
2021/10/25 11:43:36;;;;;;;22.40;14.30;;;11.10;99.90;;;;;;5074037;28;20151;-67
2021/10/25 11:46:12;;;;;;;17.83;11.80;;;11.10;99.90;;;;;;5058039;28;20127;-67
2021/10/25 11:48:38;;;;;;;24.98;12.77;;;11.10;99.90;;;;;;5058037;28;20170;-67
2021/10/25 11:51:06;;;;;;;14.35;12.50;;;11.10;99.90;;;;;;5090606;28;20041;-67
2021/10/25 11:53:32;;;;;;;13.95;12.13;;;11.20;99.90;;;;;;5057189;28;20047;-67
2021/10/25 11:55:58;;;;;;;16.48;12.55;;;11.20;99.90;;;;;;5058077;28;20518;-67
2021/10/25 11:58:27;;;;;;;17.08;11.88;;;11.10;99.90;;;;;;5056550;28;20052;-67
2021/10/25 12:00:54;;;;;;;18.52;12.20;;;11.10;99.90;;;;;;5055339;28;20049;-67
2021/10/25 12:03:24;;;;;;;15.55;12.07;;;11.10;99.90;;;;;;5087152;27;20053;-67
2021/10/25 12:05:50;;;;;;;18.15;12.80;;;11.10;99.90;;;;;;5057796;28;20094;-67
2021/10/25 12:08:17;;;;;;;20.50;13.93;;;11.10;99.90;;;;;;5055733;28;20036;-67
2021/10/25 12:10:44;;;;;;;15.35;12.85;;;11.10;99.90;;;;;;5057666;28;20045;-67
2021/10/25 12:13:11;;;;;;;18.25;12.80;;;11.10;99.90;;;;;;5090448;28;20511;-67
2021/10/25 12:16:02;;;;;;;15.23;12.60;;;11.20;99.90;;;;;;5055004;28;20045;-67
2021/10/25 12:18:28;;;;;;;16.02;12.65;;;11.10;99.90;;;;;;5055967;28;20045;-67
2021/10/25 12:20:55;;;;;;;18.73;12.75;;;11.10;99.90;;;;;;5054978;28;20037;-67
2021/10/25 12:23:23;;;;;;;18.35;12.48;;;11.20;99.90;;;;;;5057040;28;20048;-67
2021/10/25 12:26:03;;;;;;;17.88;14.00;;;11.20;99.90;;;;;;5088375;28;20037;-67
2021/10/25 12:28:29;;;;;;;15.27;13.07;;;11.20;99.90;;;;;;5057882;28;20040;-67
2021/10/25 12:31:25;;;;;;;15.77;12.73;;;11.20;99.90;;;;;;5057998;28;20140;-67
2021/10/25 12:34:00;;;;;;;19.95;14.48;;;11.30;99.90;;;;;;5045819;28;20061;-67
2021/10/25 12:36:32;;;;;;;19.23;13.50;;;11.30;99.90;;;;;;5055477;28;20043;-67
2021/10/25 12:38:59;;;;;;;17.85;13.50;;;11.30;99.90;;;;;;5085645;27;20051;-67
2021/10/25 12:41:25;;;;;;;15.90;13.32;;;11.30;99.90;;;;;;5055288;28;20040;-67
2021/10/25 12:43:56;;;;;;;17.38;12.48;;;11.30;99.90;;;;;;5056091;28;20051;-67
2021/10/25 12:46:29;;;;;;;19.60;13.57;;;11.30;99.90;;;;;;5089763;27;20047;-67
2021/10/25 12:48:56;;;;;;;20.08;14.27;;;11.30;99.90;;;;;;5057004;28;20109;-67
2021/10/25 12:51:34;;;;;;;23.60;14.13;;;11.30;99.90;;;;;;5090109;28;20045;-67
2021/10/25 12:54:14;;;;;;;17.98;13.35;;;11.40;99.90;;;;;;5057334;28;20520;-67
2021/10/25 12:56:42;;;;;;;18.52;14.07;;;11.40;99.90;;;;;;5057446;28;20028;-67
2021/10/25 12:59:10;;;;;;;21.38;13.75;;;11.30;99.90;;;;;;5055848;28;20048;-67
2021/10/25 13:01:36;;;;;;;22.15;13.30;;;11.40;99.90;;;;;;5069095;28;20060;-67
2021/10/25 13:04:05;;;;;;;19.63;13.48;;;11.40;99.90;;;;;;5053811;28;20406;-67
2021/10/25 13:06:32;;;;;;;18.13;13.10;;;11.40;99.90;;;;;;5054980;28;20037;-67
2021/10/25 13:09:10;;;;;;;23.35;13.20;;;11.40;99.90;;;;;;5056174;28;20564;-67
2021/10/25 13:11:36;;;;;;;16.80;12.43;;;11.50;99.90;;;;;;5056979;28;20102;-67
2021/10/25 13:14:03;;;;;;;26.35;13.25;;;11.50;99.90;;;;;;5061014;28;20123;-67
2021/10/25 13:16:33;;;;;;;17.73;12.65;;;11.50;99.90;;;;;;5059626;28;20036;-67
2021/10/25 13:18:59;;;;;;;19.77;13.68;;;11.50;99.90;;;;;;5055435;28;20049;-67
2021/10/25 13:21:24;;;;;;;16.48;12.75;;;11.50;99.90;;;;;;5056120;28;20056;-67
2021/10/25 13:23:50;;;;;;;18.13;13.35;;;11.50;99.90;;;;;;5053868;28;20037;-67
2021/10/25 13:26:16;;;;;;;17.15;12.77;;;11.50;99.90;;;;;;5054675;28;20217;-67
2021/10/25 13:28:42;;;;;;;19.90;13.48;;;11.60;99.90;;;;;;5055607;28;20127;-67
2021/10/25 13:31:08;;;;;;;19.08;12.68;;;11.50;99.90;;;;;;5055386;28;20457;-67
2021/10/25 13:33:34;;;;;;;16.95;12.50;;;11.50;99.90;;;;;;5053958;28;20040;-67
2021/10/25 13:36:01;;;;;;;20.63;12.57;;;11.50;99.90;;;;;;5056375;28;20044;-67
2021/10/25 13:38:27;;;;;;;17.77;13.15;;;11.50;99.90;;;;;;5056741;28;20525;-67
2021/10/25 13:40:54;;;;;;;18.67;13.18;;;11.50;99.90;;;;;;5053937;28;20059;-67
2021/10/25 13:43:20;;;;;;;22.30;13.13;;;11.50;99.90;;;;;;5057244;28;20041;-67
2021/10/25 13:45:47;;;;;;;19.80;13.05;;;11.50;99.90;;;;;;5057310;28;20429;-67
2021/10/25 13:48:14;;;;;;;17.00;12.57;;;11.50;99.90;;;;;;5056052;28;20116;-67
2021/10/25 13:50:40;;;;;;;17.77;12.90;;;11.50;99.90;;;;;;5055891;28;20060;-67
2021/10/25 13:53:22;;;;;;;17.23;13.13;;;11.50;99.90;;;;;;5063548;28;20040;-67
2021/10/25 13:55:47;;;;;;;19.50;13.95;;;11.50;99.90;;;;;;5054968;28;20107;-67
2021/10/25 13:58:13;;;;;;;19.08;12.65;;;11.50;99.90;;;;;;5056940;28;20770;-67
2021/10/25 14:00:39;;;;;;;16.35;12.32;;;11.50;99.90;;;;;;5057947;28;20033;-67
2021/10/25 14:03:05;;;;;;;20.90;13.10;;;11.50;99.90;;;;;;5053117;28;20407;-67
2021/10/25 14:05:30;;;;;;;16.52;13.35;;;11.50;99.90;;;;;;5055276;28;20102;-67
2021/10/25 14:07:56;;;;;;;18.90;14.18;;;11.50;99.90;;;;;;5056393;28;20041;-67
2021/10/25 14:13:15;;;;;;;18.88;13.63;;;11.50;99.90;;;;;;5055739;28;20048;-67
2021/10/25 14:15:50;;;;;;;19.55;14.32;;;11.60;99.90;;;;;;5055052;28;20428;-67
2021/10/25 14:18:16;;;;;;;16.87;13.53;;;11.60;99.90;;;;;;5067011;28;20562;-67